Latest Weather Observations for Rhyll

IDV60801

Issued at 7:02 pm EDT Tuesday 28 February 2017 (issued every 30 minutes, with the page automatically refreshed every 10 minutes)

About weather observations | Map of weather stations | Latest weather observations for VIC | Other Formats
Station Details ID: 086373 Name: RHYLL Lat: -38.46 Lon: 145.31 Height: 13.4 m
Data from the previous 72 hours. | See also: Recent months at Rhyll
Date/Time
EDT
Temp
°C
App
Temp
°C
Dew
Point
°C
Rel
Hum
%
Delta-T
°C
Wind Press
QNH
hPa
Press
MSL
hPa
Rain since
9am
mm
Dir  Spd
km/h
Gust
km/h
Spd
kts
Gust
kts
28/07:00pm 23.9 24.5 16.7 64 4.4 SE 9 11 5 6 1020.2 1020.2 0.0
28/06:30pm 24.1 23.9 16.6 63 4.6 SSE 13 17 7 9 1020.1 1020.1 0.0
28/06:00pm 24.4 24.0 16.1 60 5.0 SSE 13 19 7 10 1020.0 1020.0 0.0
28/05:30pm 24.8 24.6 16.8 61 4.9 SSE 13 20 7 11 1020.1 1020.1 0.0
28/05:00pm 26.6 27.3 17.1 56 5.9 S 9 13 5 7 1020.1 1020.1 0.0
28/04:30pm 26.9 27.7 17.4 56 6.0 S 9 13 5 7 1020.2 1020.2 0.0
28/04:00pm 26.3 26.8 16.5 54 6.0 S 9 13 5 7 1020.3 1020.3 0.0
28/03:30pm 26.3 27.0 17.1 57 5.7 S 9 13 5 7 1020.5 1020.5 0.0
28/03:00pm 26.5 26.8 17.0 56 5.9 SSE 11 15 6 8 1020.7 1020.7 0.0
28/02:30pm 26.2 26.5 17.0 57 5.7 SSE 11 13 6 7 1020.9 1020.9 0.0
28/02:00pm 26.0 27.0 16.8 57 5.7 S 7 11 4 6 1021.1 1021.1 0.0
28/01:30pm 26.9 28.7 18.2 59 5.5 S 6 9 3 5 1021.2 1021.2 0.0
28/01:00pm 26.8 28.8 17.8 57 5.7 S 4 6 2 3 1021.3 1021.3 0.0
28/12:30pm 26.3 27.2 15.0 49 6.8 ENE 4 7 2 4 1021.5 1021.5 0.0
28/12:00pm 25.6 26.9 16.2 56 5.7 NE 4 6 2 3 1021.7 1021.7 0.0
28/11:30am 25.2 26.5 17.1 60 5.0 ENE 6 6 3 3 1021.9 1021.9 0.0
28/11:00am 24.7 26.3 16.9 62 4.8 E 4 6 2 3 1022.1 1022.1 0.0
28/10:30am 24.4 25.4 16.4 61 4.9 E 6 7 3 4 1022.2 1022.2 0.0
28/10:00am 23.0 23.5 15.1 61 4.7 E 6 7 3 4 1022.2 1022.2 0.0
28/09:30am 22.3 23.4 16.6 70 3.5 NE 6 6 3 3 1022.1 1022.1 0.0
28/09:00am 19.2 18.9 15.5 79 2.2 N 11 15 6 8 1022.1 1022.1 0.0
28/08:30am 18.5 19.0 15.0 80 2.0 NW 6 7 3 4 1021.8 1021.8 0.0
28/08:00am 17.9 18.9 15.3 85 1.5 NNW 4 7 2 4 1021.5 1021.5 0.0
28/07:30am 17.1 18.5 15.3 89 1.0 NW 2 2 1 1 1021.4 1021.4 0.0
28/07:00am 17.4 18.8 15.4 88 1.2 NW 2 4 1 2 1020.9 1020.9 0.0
28/06:30am 17.3 18.1 14.9 86 1.4 W 4 4 2 2 1020.7 1020.7 0.0
28/06:00am 17.1 18.0 14.0 82 1.8 NW 2 4 1 2 1020.5 1020.5 0.0
28/05:30am 17.6 18.0 13.7 78 2.2 WNW 4 6 2 3 1020.3 1020.3 0.0
28/05:00am 17.6 17.5 13.3 76 2.4 W 6 7 3 4 1020.3 1020.3 0.0
28/04:30am 17.4 17.5 12.7 74 2.6 SW 4 4 2 2 1020.3 1020.3 0.0
28/04:00am 18.0 17.9 13.3 74 2.6 SW 6 7 3 4 1020.3 1020.3 0.0
28/03:30am 17.7 17.9 14.2 80 2.0 SW 6 6 3 3 1020.4 1020.4 0.0
28/03:00am 17.9 19.5 15.0 83 1.7 CALM 0 0 0 0 1020.6 1020.6 0.0
28/02:30am 18.6 19.9 15.1 80 2.0 S 2 4 1 2 1020.8 1020.8 0.0
28/02:00am 18.3 18.4 13.8 75 2.6 SE 6 7 3 4 1021.1 1021.1 0.0
28/01:30am 18.6 18.9 14.5 77 2.4 E 6 9 3 5 1021.2 1021.2 0.0
28/01:00am 19.2 19.4 14.7 75 2.6 ESE 7 7 4 4 1021.2 1021.2 0.0
28/12:30am 19.9 20.5 15.7 77 2.5 E 7 9 4 5 1021.2 1021.2 0.0
28/12:00am 19.6 20.4 16.3 81 2.0 E 7 9 4 5 1021.5 1021.5 0.0
 
Date/Time
EDT
Temp
°C
App
Temp
°C
Dew
Point
°C
Rel
Hum
%
Delta-T
°C
Wind Press
QNH
hPa
Press
MSL
hPa
Rain since
9am
mm
Dir  Spd
km/h
Gust
km/h
Spd
kts
Gust
kts
27/11:30pm 19.9 20.8 16.2 79 2.2 E 6 6 3 3 1021.5 1021.5 0.0
27/11:00pm 20.2 21.9 16.2 78 2.4 SE 2 6 1 3 1021.6 1021.6 0.0
27/10:30pm 20.3 21.2 16.1 77 2.5 E 6 9 3 5 1021.6 1021.6 0.0
27/10:00pm 20.8 20.9 16.4 76 2.6 E 11 13 6 7 1021.6 1021.6 0.0
27/09:30pm 20.8 19.6 16.2 75 2.8 ENE 17 22 9 12 1021.5 1021.5 0.0
27/09:00pm 21.7 20.1 16.4 72 3.2 E 20 24 11 13 1021.1 1021.1 0.0
27/08:30pm 21.9 20.3 16.6 72 3.2 ESE 20 26 11 14 1020.8 1020.8 0.0
27/08:00pm 22.9 20.8 17.1 70 3.6 ESE 24 28 13 15 1020.8 1020.8 0.0
27/07:30pm 23.8 22.2 17.5 68 3.9 ESE 22 24 12 13 1020.7 1020.7 0.0
27/07:00pm 24.6 23.4 17.6 65 4.4 ESE 20 24 11 13 1020.5 1020.5 0.0
27/06:30pm 24.9 24.7 17.6 64 4.6 SE 15 19 8 10 1020.5 1020.5 0.0
27/06:00pm 25.5 25.7 17.7 62 4.9 SE 13 15 7 8 1020.5 1020.5 0.0
27/05:30pm 25.5 25.2 17.4 61 5.1 SE 15 17 8 9 1020.5 1020.5 0.0
27/05:00pm 25.8 26.5 18.0 62 4.9 SSE 11 13 6 7 1020.5 1020.5 0.0
27/04:30pm 25.9 26.3 17.3 59 5.4 SSE 11 13 6 7 1020.6 1020.6 0.0
27/04:00pm 25.9 25.9 17.3 59 5.4 SSE 13 15 7 8 1020.8 1020.8 0.0
27/03:30pm 26.4 26.4 17.2 57 5.7 SSE 13 17 7 9 1021.0 1021.0 0.0
27/03:00pm 26.4 26.8 16.3 53 6.2 ESE 9 13 5 7 1021.3 1021.3 0.0
27/02:30pm 25.8 25.6 14.6 50 6.7 SE 9 13 5 7 1021.7 1021.7 0.0
27/02:00pm 25.0 25.3 15.9 57 5.5 SE 9 11 5 6 1021.9 1021.9 0.0
27/01:30pm 24.6 24.9 16.1 59 5.2 ESE 9 9 5 5 1022.1 1022.1 0.0
27/01:00pm 25.8 26.9 17.2 59 5.3 E 7 11 4 6 1022.3 1022.3 0.0
27/12:30pm 25.7 26.2 16.5 56 5.7 E 9 11 5 6 1022.5 1022.5 0.0
27/12:00pm 25.4 26.4 16.8 59 5.3 E 7 11 4 6 1022.7 1022.7 0.0
27/11:30am 24.9 25.4 16.6 60 5.1 ENE 9 13 5 7 1023.0 1023.0 0.0
27/11:00am 23.8 24.6 15.8 61 4.8 NE 6 9 3 5 1023.0 1023.0 0.0
27/10:30am 23.0 23.6 15.8 64 4.3 ENE 7 11 4 6 1023.1 1023.1 0.0
27/10:00am 21.8 21.5 15.4 67 3.8 ENE 11 15 6 8 1023.1 1023.1 0.0
27/09:30am 20.5 19.2 14.8 70 3.3 ENE 15 19 8 10 1023.1 1023.1 0.0
27/09:00am 19.3 17.6 14.6 74 2.7 NE 17 20 9 11 1023.1 1023.1 0.0
27/08:30am 18.2 16.6 13.9 76 2.5 NE 15 19 8 10 1023.1 1023.1 0.0
27/08:00am 16.8 16.2 13.5 81 1.9 NE 9 17 5 9 1022.9 1022.9 0.0
27/07:30am 15.8 16.5 13.3 85 1.4 NW 2 6 1 3 1022.6 1022.6 0.0
27/07:00am 15.1 15.6 12.8 86 1.3 SW 2 4 1 2 1021.9 1021.9 0.0
27/06:30am 15.4 15.6 13.1 86 1.3 SW 4 6 2 3 1021.6 1021.6 0.0
27/06:00am 15.2 16.0 12.7 85 1.4 CALM 0 2 0 1 1021.3 1021.3 0.0
27/05:30am 15.6 15.4 12.9 84 1.5 SW 6 7 3 4 1021.2 1021.2 0.0
27/05:00am 16.0 16.0 12.4 79 2.0 WSW 4 6 2 3 1020.8 1020.8 0.0
27/04:30am 16.1 16.0 12.1 77 2.2 W 4 6 2 3 1020.8 1020.8 0.0
27/04:00am 16.3 15.9 12.3 77 2.2 WNW 6 7 3 4 1020.9 1020.9 0.0
27/03:30am 15.9 16.6 12.3 79 2.0 CALM 0 0 0 0 1021.0 1021.0 0.0
27/03:00am 16.0 16.2 12.0 77 2.2 ESE 2 6 1 3 1021.1 1021.1 0.0
27/02:30am 16.5 16.1 12.5 77 2.2 E 6 7 3 4 1021.1 1021.1 0.0
27/02:00am 17.1 15.8 12.6 75 2.5 E 11 13 6 7 1021.2 1021.2 0.0
27/01:30am 17.6 15.7 12.9 74 2.6 ENE 15 19 8 10 1021.3 1021.3 0.0
27/01:00am 17.6 15.6 12.7 73 2.7 ENE 15 20 8 11 1021.4 1021.4 0.0
27/12:30am 17.9 15.6 13.0 73 2.7 ENE 17 22 9 12 1021.5 1021.5 0.0
27/12:00am 18.2 15.3 12.9 71 3.0 ENE 20 24 11 13 1021.5 1021.5 0.0
 
Date/Time
EDT
Temp
°C
App
Temp
°C
Dew
Point
°C
Rel
Hum
%
Delta-T
°C
Wind Press
QNH
hPa
Press
MSL
hPa
Rain since
9am
mm
Dir  Spd
km/h
Gust
km/h
Spd
kts
Gust
kts
26/11:30pm 18.3 15.0 12.7 70 3.1 ENE 22 28 12 15 1021.7 1021.7 0.0
26/11:00pm 18.6 14.5 12.8 69 3.2 ENE 26 32 14 17 1021.8 1021.8 0.0
26/10:30pm 18.9 14.0 12.6 67 3.5 ENE 30 35 16 19 1021.8 1021.8 0.0
26/10:00pm 19.3 14.5 13.0 67 3.5 ENE 30 35 16 19 1021.7 1021.7 0.0
26/09:30pm 19.9 14.7 12.9 64 4.0 ENE 32 39 17 21 1021.5 1021.5 0.0
26/09:00pm 20.0 17.4 13.7 67 3.6 E 20 26 11 14 1021.3 1021.3 0.0
26/08:30pm 20.4 17.5 14.1 67 3.6 E 22 26 12 14 1020.7 1020.7 0.0
26/08:00pm 21.1 17.2 14.5 66 3.9 E 28 32 15 17 1020.4 1020.4 0.0
26/07:30pm 22.1 17.5 14.5 62 4.5 E 32 39 17 21 1020.1 1020.1 0.0
26/07:00pm 22.7 18.2 14.8 61 4.7 ESE 32 37 17 20 1019.8 1019.8 0.0
26/06:30pm 23.2 18.9 15.3 61 4.7 ESE 32 37 17 20 1019.6 1019.5 0.0
26/06:00pm 23.6 19.3 15.4 60 4.9 ESE 32 41 17 22 1019.6 1019.5 0.0
26/05:30pm 24.1 19.6 15.3 58 5.3 ESE 33 37 18 20 1019.3 1019.2 0.0
26/05:00pm 24.6 22.7 15.2 55 5.6 SE 19 35 10 19 1019.3 1019.2 0.0
26/04:30pm 26.2 25.8 15.3 51 6.6 SSE 11 20 6 11 1019.6 1019.5 0.0
26/04:00pm 26.6 26.2 12.3 41 8.2 S 6 7 3 4 1019.8 1019.8 0.0
26/03:30pm 27.1 26.9 15.8 50 6.9 ENE 11 13 6 7 1020.0 1020.0 0.0
26/03:00pm 26.7 26.0 15.4 50 6.9 ENE 13 13 7 7 1020.3 1020.3 0.0
26/02:30pm 26.7 26.1 14.5 47 7.3 NE 11 15 6 8 1020.7 1020.7 0.0
26/02:00pm 26.0 24.5 15.4 52 6.4 NE 17 20 9 11 1020.9 1020.9 0.0
26/01:30pm 25.3 23.3 13.8 49 6.8 NE 17 19 9 10 1021.0 1021.0 0.0
26/01:00pm 25.6 23.5 13.5 47 7.1 NE 17 20 9 11 1021.3 1021.3 0.0
26/12:30pm 26.3 25.5 15.0 49 6.8 NE 13 17 7 9 1021.7 1021.7 0.0
26/12:00pm 24.9 22.8 13.5 49 6.6 NE 17 19 9 10 1021.9 1021.9 0.0
26/11:30am 24.3 22.5 14.4 54 5.9 ENE 17 20 9 11 1022.2 1022.2 0.0
26/11:00am 24.3 23.0 13.8 52 6.1 ENE 13 20 7 11 1022.3 1022.3 0.0
26/10:30am 23.9 23.1 12.8 49 6.4 NE 9 13 5 7 1022.4 1022.4 0.0
26/10:00am 22.2 20.6 12.7 55 5.4 ENE 13 19 7 10 1022.3 1022.3 0.0
26/09:30am 20.8 18.3 12.2 58 4.8 E 17 22 9 12 1022.2 1022.2 0.0
26/09:00am 19.5 17.6 13.0 66 3.7 ESE 15 19 8 10 1022.3 1022.3 0.0
26/08:30am 17.9 14.4 12.1 69 3.2 ESE 22 26 12 14 1022.1 1022.1 0.0
26/08:00am 17.4 14.2 11.9 70 3.0 ESE 20 24 11 13 1021.9 1021.9 0.0
26/07:30am 16.5 13.3 11.9 74 2.5 ESE 20 24 11 13 1021.6 1021.6 0.0
26/07:00am 16.2 12.3 12.0 76 2.3 ESE 24 30 13 16 1021.4 1021.4 0.0
26/06:30am 16.2 12.3 12.2 77 2.2 ESE 24 30 13 16 1021.2 1021.2 0.0
26/06:00am 16.2 11.6 12.2 77 2.2 ESE 28 35 15 19 1021.1 1021.1 0.0
26/05:30am 16.0 10.9 12.0 77 2.2 ESE 30 33 16 18 1020.7 1020.7 0.0
26/05:00am 16.1 11.5 12.3 78 2.1 ESE 28 32 15 17 1020.9 1020.9 0.0
26/04:30am 15.9 12.1 12.5 80 1.9 ESE 24 30 13 16 1020.8 1020.8 0.0
26/04:00am 16.1 12.0 12.7 80 1.9 ESE 26 33 14 18 1020.8 1020.8 0.0
26/03:30am 16.3 11.1 12.8 80 1.9 ESE 32 35 17 19 1021.0 1021.0 0.0
26/03:00am 16.3 11.0 13.0 81 1.8 ESE 33 39 18 21 1021.8 1021.8 0.0
26/02:30am 16.3 12.1 13.4 83 1.6 ESE 28 37 15 20 1021.9 1021.9 0.0
26/02:00am 16.3 13.1 13.2 82 1.7 SE 22 33 12 18 1022.1 1022.1 0.0
26/01:30am 16.7 12.5 13.4 81 1.9 ESE 28 35 15 19 1022.3 1022.3 0.0
26/01:00am 16.8 11.9 13.7 82 1.7 ESE 32 37 17 20 1022.1 1022.1 0.0
26/12:30am 16.8 11.9 13.7 82 1.8 ESE 32 37 17 20 1022.6 1022.6 0.0
26/12:00am 16.8 11.8 13.9 83 1.6 ESE 33 39 18 21 1022.8 1022.8 0.0
 
Date/Time
EDT
Temp
°C
App
Temp
°C
Dew
Point
°C
Rel
Hum
%
Delta-T
°C
Wind Press
QNH
hPa
Press
MSL
hPa
Rain since
9am
mm
Dir  Spd
km/h
Gust
km/h
Spd
kts
Gust
kts
25/11:30pm 16.8 11.4 13.9 83 1.6 ESE 35 41 19 22 1022.8 1022.8 0.0
25/11:00pm 16.8 12.0 13.9 83 1.6 ESE 32 41 17 22 1022.6 1022.6 0.0
25/10:30pm 16.9 11.9 14.0 83 1.6 ESE 33 41 18 22 1022.7 1022.7 0.0
25/10:00pm 17.0 11.7 14.1 83 1.6 ESE 35 43 19 23 1022.8 1022.8 0.0
25/09:30pm 17.1 12.2 14.2 83 1.7 ESE 33 39 18 21 1022.6 1022.6 0.0
25/09:00pm 17.4 11.7 14.3 82 1.8 ESE 37 46 20 25 1022.1 1022.1 0.0
25/08:30pm 17.7 12.3 14.0 79 2.1 ESE 35 43 19 23 1021.7 1021.7 0.0
25/08:00pm 18.1 12.4 14.2 78 2.2 ESE 37 44 20 24 1021.5 1021.5 0.0
25/07:59pm 18.0 12.2 13.9 77 2.3 ESE 37 44 20 24 1021.5 1021.5 0.0
25/07:30pm 18.2 16.3 15.1 82 1.8 SSE 19 26 10 14 1021.8 1021.8 0.0

Other Formats:

Comma delimited format used in spreadsheet applications
http://www.bom.gov.au/fwo/IDV60801/IDV60801.94892.axf

JavaScript Object Notation format (JSON) in row-major order
http://www.bom.gov.au/fwo/IDV60801/IDV60801.94892.json